Aeroporto :
LOGIN :

Iscrizione | Disclaimer

   EN    FR    IT 

 










Sommario :    VFR   VFR Marginale   IFR   IFR Intensivo   IFR Molto Intensivo
Visibilità : 
Base nubi : 
>= 8 km
>= 3000ft
5 / 8 km
1000 / 3000 ft
1500m / 5 km
500 / 1000 ft
800 / 1500m
200 / 500 ft
< 800m
< 200 ft
Simboli :   Temporali  Nebbia  Neve Forte  Precipitazioni Forti  Vento > 20 kt
SIGMETs :   Varie  Temporali  Ghiacco  Turbolenza  Onda orograficha  Ceneri Vulcaniche






- Altitudine del aeroporto : 170 ft
- Codice IATA : KRP


EKKA - Karup

ULTIMO METAR :
  • 171820Z AUTO 19007KT 2600 -RA BR OVC003/// 07/07 Q1008

METARs OBSOLETI :
  • 171808Z AUTO 19007KT 2300 +DZ BR OVC003/// 07/06 Q1008
  • 171743Z AUTO 18007KT 2200 +DZ BR OVC004/// 07/06 Q1008
  • 171727Z 18007KT 150V210 2500 -RA BR BKN004 07/06 Q1008
  • 171650Z 19009KT 2500 -RA BR BKN008 07/06 Q1008
  • 171645Z 19008KT 4000 -RA BR BKN008 08/06 Q1008
  • 171620Z 19008KT 9999 BKN011 08/06 Q1008
  • 171550Z 19009KT 9999 BKN014 08/06 Q1008

TAF TAF EKKA
Valido dal 17 a 18 ore il 18 a 18 ore UTC


171721Z 1718/1818 18012KT 1800 -RA BKN003
TEMPO 1718/1720 3000 RA BR BKN006
BECMG 1720/1722 21010KT 4000 BR BKN008
TEMPO 1722/1804 6000 NSW BKN015
FM180400 24012KT 9999 BKN020
TEMPO 1804/1808 6000 -SHRA BKN008 SCT020TCU
TEMPO 1808/1818 4000 SHRA BKN012 SCT020CB
PROB40 1809/1818 25015G25KT SHGS



MetMap, La meteo Aeronautica in un colpo d'occhio ! - Copyright ORBIFLY Dicembre 2007 - Disclaimer

ORBIFLY MET'MAP TEAM :

Programmazione e sviluppo : Alexandra Zaïnal
Concezione : Baudouin d'Aumeries
Aiuto per la programmazione : Marc-Olivier Méhu
Supporto tecnico e logistico : Manuel Goepfert
Aiuto per la traduzione : Arnaldo La Scala

Contatto : metmap@orbifly.com




FONTI E CREDITI :

   NOAA